sensor_id;sensor_type;location;lat;lon;timestamp;P1;durP1;ratioP1;P2;durP2;ratioP2
1164;SDS011;571;50.930;6.926;2022-09-04T04:02:57;13.23;;;8.83;;
1164;SDS011;571;50.930;6.926;2022-09-04T04:05:33;9.77;;;8.83;;
1164;SDS011;571;50.930;6.926;2022-09-04T04:08:20;11.20;;;9.50;;
1164;SDS011;571;50.930;6.926;2022-09-04T04:11:19;9.37;;;8.43;;
1164;SDS011;571;50.930;6.926;2022-09-04T04:14:06;10.23;;;9.10;;
1164;SDS011;571;50.930;6.926;2022-09-04T04:16:57;11.23;;;8.97;;
1164;SDS011;571;50.930;6.926;2022-09-04T04:19:41;10.57;;;9.57;;
1164;SDS011;571;50.930;6.926;2022-09-04T04:22:23;9.53;;;8.53;;
1164;SDS011;571;50.930;6.926;2022-09-04T04:25:07;11.60;;;8.80;;
1164;SDS011;571;50.930;6.926;2022-09-04T04:27:47;9.07;;;8.00;;
1164;SDS011;571;50.930;6.926;2022-09-04T04:30:23;9.07;;;8.30;;
1164;SDS011;571;50.930;6.926;2022-09-04T04:33:00;10.53;;;9.53;;
1164;SDS011;571;50.930;6.926;2022-09-04T04:35:46;10.57;;;9.57;;
1164;SDS011;571;50.930;6.926;2022-09-04T04:38:34;9.57;;;8.47;;
1164;SDS011;571;50.930;6.926;2022-09-04T04:41:15;13.53;;;7.40;;
1164;SDS011;571;50.930;6.926;2022-09-04T04:43:56;9.43;;;8.47;;
1164;SDS011;571;50.930;6.926;2022-09-04T04:46:35;10.30;;;9.30;;
1164;SDS011;571;50.930;6.926;2022-09-04T04:52:30;9.97;;;8.97;;
1164;SDS011;571;50.930;6.926;2022-09-04T04:55:06;9.67;;;8.53;;
1164;SDS011;571;50.930;6.926;2022-09-04T04:57:44;8.97;;;8.07;;
1164;SDS011;571;50.930;6.926;2022-09-04T05:00:19;9.50;;;8.70;;
1164;SDS011;571;50.930;6.926;2022-09-04T05:02:51;7.80;;;7.00;;
1164;SDS011;571;50.930;6.926;2022-09-04T05:05:40;8.67;;;7.67;;
1164;SDS011;571;50.930;6.926;2022-09-04T05:08:18;9.03;;;8.13;;
1164;SDS011;571;50.930;6.926;2022-09-04T05:10:52;8.30;;;7.60;;
1164;SDS011;571;50.930;6.926;2022-09-04T05:13:25;8.60;;;7.80;;
1164;SDS011;571;50.930;6.926;2022-09-04T05:15:59;8.93;;;8.03;;
1164;SDS011;571;50.930;6.926;2022-09-04T05:18:32;8.67;;;7.70;;
1164;SDS011;571;50.930;6.926;2022-09-04T05:21:07;8.10;;;7.13;;
1164;SDS011;571;50.930;6.926;2022-09-04T05:23:45;10.30;;;8.20;;
1164;SDS011;571;50.930;6.926;2022-09-04T05:26:18;8.40;;;7.40;;
1164;SDS011;571;50.930;6.926;2022-09-04T05:28:53;13.10;;;8.00;;
1164;SDS011;571;50.930;6.926;2022-09-04T05:31:29;8.80;;;7.63;;
1164;SDS011;571;50.930;6.926;2022-09-04T05:34:03;7.70;;;7.00;;
1164;SDS011;571;50.930;6.926;2022-09-04T05:36:38;7.70;;;6.97;;
1164;SDS011;571;50.930;6.926;2022-09-04T05:39:14;8.33;;;7.23;;
1164;SDS011;571;50.930;6.926;2022-09-04T05:41:59;8.00;;;7.27;;
1164;SDS011;571;50.930;6.926;2022-09-04T05:44:35;9.67;;;7.87;;
1164;SDS011;571;50.930;6.926;2022-09-04T05:47:13;8.37;;;7.47;;
1164;SDS011;571;50.930;6.926;2022-09-04T05:50:02;8.33;;;7.43;;
1164;SDS011;571;50.930;6.926;2022-09-04T05:56:07;8.20;;;7.40;;
1164;SDS011;571;50.930;6.926;2022-09-04T05:58:48;10.00;;;8.27;;
1164;SDS011;571;50.930;6.926;2022-09-04T06:01:31;9.40;;;8.60;;
1164;SDS011;571;50.930;6.926;2022-09-04T06:04:23;8.10;;;6.40;;
1164;SDS011;571;50.930;6.926;2022-09-04T06:07:11;7.37;;;6.67;;
1164;SDS011;571;50.930;6.926;2022-09-04T06:09:45;7.27;;;6.57;;
1164;SDS011;571;50.930;6.926;2022-09-04T06:15:35;7.27;;;6.57;;
1164;SDS011;571;50.930;6.926;2022-09-04T06:18:21;7.27;;;6.57;;
1164;SDS011;571;50.930;6.926;2022-09-04T06:21:14;7.50;;;6.80;;
1164;SDS011;571;50.930;6.926;2022-09-04T06:24:16;9.00;;;7.37;;
1164;SDS011;571;50.930;6.926;2022-09-04T06:26:59;9.13;;;6.73;;
1164;SDS011;571;50.930;6.926;2022-09-04T06:29:50;8.30;;;7.50;;
1164;SDS011;571;50.930;6.926;2022-09-04T06:32:34;7.80;;;7.00;;
1164;SDS011;571;50.930;6.926;2022-09-04T06:35:25;7.53;;;6.93;;
1164;SDS011;571;50.930;6.926;2022-09-04T06:38:17;9.13;;;7.13;;
1164;SDS011;571;50.930;6.926;2022-09-04T06:41:01;8.50;;;7.10;;
1164;SDS011;571;50.930;6.926;2022-09-04T06:43:39;7.80;;;7.10;;
1164;SDS011;571;50.930;6.926;2022-09-04T06:46:16;8.50;;;5.23;;
1164;SDS011;571;50.930;6.926;2022-09-04T06:48:52;5.67;;;5.17;;
1164;SDS011;571;50.930;6.926;2022-09-04T06:51:31;7.87;;;7.17;;
1164;SDS011;571;50.930;6.926;2022-09-04T06:54:11;7.60;;;6.80;;
1164;SDS011;571;50.930;6.926;2022-09-04T06:56:48;6.90;;;6.20;;
1164;SDS011;571;50.930;6.926;2022-09-04T06:59:43;7.03;;;6.43;;
1164;SDS011;571;50.930;6.926;2022-09-04T07:02:39;7.03;;;6.33;;
1164;SDS011;571;50.930;6.926;2022-09-04T07:05:28;7.50;;;6.80;;
1164;SDS011;571;50.930;6.926;2022-09-04T07:08:02;7.50;;;6.70;;
1164;SDS011;571;50.930;6.926;2022-09-04T07:10:38;9.30;;;7.03;;
1164;SDS011;571;50.930;6.926;2022-09-04T07:19:19;7.90;;;6.60;;
1164;SDS011;571;50.930;6.926;2022-09-04T07:22:10;8.23;;;6.37;;
1164;SDS011;571;50.930;6.926;2022-09-04T07:24:56;11.53;;;7.80;;
1164;SDS011;571;50.930;6.926;2022-09-04T07:27:38;8.53;;;7.70;;
1164;SDS011;571;50.930;6.926;2022-09-04T07:30:16;7.53;;;6.70;;
1164;SDS011;571;50.930;6.926;2022-09-04T07:32:47;8.77;;;7.90;;
1164;SDS011;571;50.930;6.926;2022-09-04T07:35:21;6.70;;;6.10;;
1164;SDS011;571;50.930;6.926;2022-09-04T07:37:55;7.60;;;6.83;;
1164;SDS011;571;50.930;6.926;2022-09-04T07:40:25;7.13;;;6.47;;
1164;SDS011;571;50.930;6.926;2022-09-04T07:43:04;6.37;;;5.67;;
1164;SDS011;571;50.930;6.926;2022-09-04T07:45:38;6.50;;;5.90;;
1164;SDS011;571;50.930;6.926;2022-09-04T07:48:15;7.90;;;7.10;;
1164;SDS011;571;50.930;6.926;2022-09-04T07:50:51;8.87;;;8.00;;
1164;SDS011;571;50.930;6.926;2022-09-04T07:53:29;6.70;;;5.97;;
1164;SDS011;571;50.930;6.926;2022-09-04T07:56:11;7.00;;;6.40;;
1164;SDS011;571;50.930;6.926;2022-09-04T07:58:52;6.77;;;6.10;;
1164;SDS011;571;50.930;6.926;2022-09-04T08:01:35;5.73;;;5.23;;
1164;SDS011;571;50.930;6.926;2022-09-04T08:04:21;8.90;;;6.30;;
1164;SDS011;571;50.930;6.926;2022-09-04T08:07:03;6.87;;;6.37;;
1164;SDS011;571;50.930;6.926;2022-09-04T08:09:37;7.60;;;6.73;;
1164;SDS011;571;50.930;6.926;2022-09-04T08:12:27;5.30;;;4.90;;
1164;SDS011;571;50.930;6.926;2022-09-04T08:15:12;5.83;;;5.30;;
1164;SDS011;571;50.930;6.926;2022-09-04T08:20:46;5.50;;;5.00;;
1164;SDS011;571;50.930;6.926;2022-09-04T08:26:18;7.10;;;5.70;;
1164;SDS011;571;50.930;6.926;2022-09-04T08:28:59;5.77;;;5.33;;
1164;SDS011;571;50.930;6.926;2022-09-04T08:31:40;6.17;;;5.47;;
1164;SDS011;571;50.930;6.926;2022-09-04T08:34:23;5.53;;;5.03;;
1164;SDS011;571;50.930;6.926;2022-09-04T08:37:21;5.13;;;4.63;;
1164;SDS011;571;50.930;6.926;2022-09-04T08:39:56;6.40;;;5.73;;
1164;SDS011;571;50.930;6.926;2022-09-04T08:42:44;7.43;;;5.87;;
1164;SDS011;571;50.930;6.926;2022-09-04T08:45:43;5.53;;;4.70;;
1164;SDS011;571;50.930;6.926;2022-09-04T08:58:03;5.07;;;4.57;;
1164;SDS011;571;50.930;6.926;2022-09-04T09:01:07;5.10;;;4.70;;
1164;SDS011;571;50.930;6.926;2022-09-04T09:04:01;9.20;;;5.53;;
1164;SDS011;571;50.930;6.926;2022-09-04T09:06:52;4.23;;;3.73;;
1164;SDS011;571;50.930;6.926;2022-09-04T09:12:57;5.13;;;4.50;;
1164;SDS011;571;50.930;6.926;2022-09-04T09:16:00;5.53;;;5.03;;
1164;SDS011;571;50.930;6.926;2022-09-04T09:18:52;3.93;;;3.53;;
1164;SDS011;571;50.930;6.926;2022-09-04T09:21:37;7.33;;;4.70;;
1164;SDS011;571;50.930;6.926;2022-09-04T09:24:18;4.27;;;3.70;;
1164;SDS011;571;50.930;6.926;2022-09-04T09:27:06;3.97;;;3.57;;
1164;SDS011;571;50.930;6.926;2022-09-04T09:30:02;4.47;;;3.77;;
1164;SDS011;571;50.930;6.926;2022-09-04T09:32:47;4.30;;;3.63;;
1164;SDS011;571;50.930;6.926;2022-09-04T09:39:04;3.97;;;3.67;;
1164;SDS011;571;50.930;6.926;2022-09-04T09:42:00;4.20;;;3.90;;
1164;SDS011;571;50.930;6.926;2022-09-04T09:57:25;4.30;;;3.90;;
1164;SDS011;571;50.930;6.926;2022-09-04T10:00:10;4.40;;;4.00;;
1164;SDS011;571;50.930;6.926;2022-09-04T10:02:48;4.50;;;4.10;;
1164;SDS011;571;50.930;6.926;2022-09-04T10:05:55;8.23;;;4.50;;
1164;SDS011;571;50.930;6.926;2022-09-04T10:08:51;3.93;;;3.53;;
1164;SDS011;571;50.930;6.926;2022-09-04T10:11:54;4.03;;;3.63;;
1164;SDS011;571;50.930;6.926;2022-09-04T10:15:00;3.33;;;2.90;;
1164;SDS011;571;50.930;6.926;2022-09-04T10:21:17;4.57;;;3.50;;
1164;SDS011;571;50.930;6.926;2022-09-04T10:27:14;3.90;;;3.50;;
1164;SDS011;571;50.930;6.926;2022-09-04T10:30:06;5.07;;;4.60;;
1164;SDS011;571;50.930;6.926;2022-09-04T10:32:39;5.47;;;4.97;;
1164;SDS011;571;50.930;6.926;2022-09-04T10:35:21;5.43;;;4.40;;
1164;SDS011;571;50.930;6.926;2022-09-04T10:41:13;3.90;;;3.50;;
1164;SDS011;571;50.930;6.926;2022-09-04T10:44:05;4.27;;;3.87;;
1164;SDS011;571;50.930;6.926;2022-09-04T10:46:53;6.73;;;3.30;;
1164;SDS011;571;50.930;6.926;2022-09-04T10:49:35;8.97;;;2.47;;
1164;SDS011;571;50.930;6.926;2022-09-04T10:52:17;4.47;;;3.30;;
1164;SDS011;571;50.930;6.926;2022-09-04T10:58:03;4.07;;;3.43;;
1164;SDS011;571;50.930;6.926;2022-09-04T11:00:41;3.03;;;2.70;;
1164;SDS011;571;50.930;6.926;2022-09-04T11:03:33;5.43;;;4.17;;
1164;SDS011;571;50.930;6.926;2022-09-04T11:09:17;5.77;;;2.90;;
1164;SDS011;571;50.930;6.926;2022-09-04T11:12:12;5.00;;;3.90;;
1164;SDS011;571;50.930;6.926;2022-09-04T11:15:01;3.10;;;2.77;;
1164;SDS011;571;50.930;6.926;2022-09-04T11:18:14;3.20;;;2.93;;
1164;SDS011;571;50.930;6.926;2022-09-04T11:21:00;2.50;;;2.30;;
1164;SDS011;571;50.930;6.926;2022-09-04T11:23:56;3.27;;;2.10;;
1164;SDS011;571;50.930;6.926;2022-09-04T11:27:07;3.80;;;2.47;;
1164;SDS011;571;50.930;6.926;2022-09-04T11:29:57;2.80;;;2.60;;
1164;SDS011;571;50.930;6.926;2022-09-04T11:32:37;2.43;;;2.23;;
1164;SDS011;571;50.930;6.926;2022-09-04T11:35:26;2.20;;;2.00;;
1164;SDS011;571;50.930;6.926;2022-09-04T11:38:07;3.40;;;2.27;;
1164;SDS011;571;50.930;6.926;2022-09-04T11:47:00;2.30;;;2.10;;
1164;SDS011;571;50.930;6.926;2022-09-04T11:52:39;1.70;;;1.60;;
1164;SDS011;571;50.930;6.926;2022-09-04T11:55:25;2.27;;;2.07;;
1164;SDS011;571;50.930;6.926;2022-09-04T11:58:21;3.13;;;2.83;;
1164;SDS011;571;50.930;6.926;2022-09-04T12:01:05;2.67;;;2.40;;
1164;SDS011;571;50.930;6.926;2022-09-04T12:06:50;1.90;;;1.80;;
1164;SDS011;571;50.930;6.926;2022-09-04T12:09:37;4.30;;;2.77;;
1164;SDS011;571;50.930;6.926;2022-09-04T12:12:38;2.77;;;1.80;;
1164;SDS011;571;50.930;6.926;2022-09-04T12:15:31;2.20;;;2.00;;
1164;SDS011;571;50.930;6.926;2022-09-04T12:18:24;2.00;;;1.90;;
1164;SDS011;571;50.930;6.926;2022-09-04T12:21:22;2.07;;;1.97;;
1164;SDS011;571;50.930;6.926;2022-09-04T12:27:19;4.10;;;2.20;;
1164;SDS011;571;50.930;6.926;2022-09-04T12:30:05;4.20;;;2.50;;
1164;SDS011;571;50.930;6.926;2022-09-04T12:32:43;2.43;;;2.10;;
1164;SDS011;571;50.930;6.926;2022-09-04T12:35:41;2.17;;;1.73;;
1164;SDS011;571;50.930;6.926;2022-09-04T12:38:30;2.73;;;1.53;;
1164;SDS011;571;50.930;6.926;2022-09-04T12:41:12;2.17;;;1.97;;
1164;SDS011;571;50.930;6.926;2022-09-04T12:43:47;2.43;;;1.77;;
1164;SDS011;571;50.930;6.926;2022-09-04T12:46:24;2.70;;;1.80;;
1164;SDS011;571;50.930;6.926;2022-09-04T12:49:13;5.50;;;1.60;;
1164;SDS011;571;50.930;6.926;2022-09-04T12:51:55;1.60;;;1.50;;
1164;SDS011;571;50.930;6.926;2022-09-04T12:54:33;10.13;;;2.47;;
1164;SDS011;571;50.930;6.926;2022-09-04T12:57:11;3.10;;;1.47;;
1164;SDS011;571;50.930;6.926;2022-09-04T12:59:53;2.73;;;1.73;;
1164;SDS011;571;50.930;6.926;2022-09-04T13:02:31;2.30;;;1.47;;
1164;SDS011;571;50.930;6.926;2022-09-04T13:05:14;1.60;;;1.50;;
1164;SDS011;571;50.930;6.926;2022-09-04T13:07:57;1.90;;;1.43;;
1164;SDS011;571;50.930;6.926;2022-09-04T13:10:35;1.90;;;1.27;;
1164;SDS011;571;50.930;6.926;2022-09-04T13:13:12;3.03;;;1.63;;
1164;SDS011;571;50.930;6.926;2022-09-04T13:15:46;3.00;;;1.80;;
1164;SDS011;571;50.930;6.926;2022-09-04T13:18:22;2.40;;;1.63;;
1164;SDS011;571;50.930;6.926;2022-09-04T13:21:02;2.00;;;1.70;;
1164;SDS011;571;50.930;6.926;2022-09-04T13:23:46;2.30;;;1.90;;
1164;SDS011;571;50.930;6.926;2022-09-04T13:29:33;1.70;;;1.50;;
1164;SDS011;571;50.930;6.926;2022-09-04T13:35:09;2.40;;;1.57;;
1164;SDS011;571;50.930;6.926;2022-09-04T13:37:45;2.90;;;1.10;;
1164;SDS011;571;50.930;6.926;2022-09-04T13:40:29;1.60;;;1.50;;
1164;SDS011;571;50.930;6.926;2022-09-04T13:46:02;2.50;;;1.10;;
1164;SDS011;571;50.930;6.926;2022-09-04T13:48:33;2.50;;;1.90;;
1164;SDS011;571;50.930;6.926;2022-09-04T13:51:05;1.93;;;1.80;;
1164;SDS011;571;50.930;6.926;2022-09-04T13:53:39;2.30;;;2.10;;
1164;SDS011;571;50.930;6.926;2022-09-04T13:56:18;3.10;;;1.90;;
1164;SDS011;571;50.930;6.926;2022-09-04T13:58:51;7.00;;;2.23;;
1164;SDS011;571;50.930;6.926;2022-09-04T14:01:23;1.60;;;1.47;;
1164;SDS011;571;50.930;6.926;2022-09-04T14:03:54;2.50;;;1.70;;
1164;SDS011;571;50.930;6.926;2022-09-04T14:06:25;3.77;;;1.40;;
1164;SDS011;571;50.930;6.926;2022-09-04T14:08:57;2.97;;;1.50;;
1164;SDS011;571;50.930;6.926;2022-09-04T14:11:34;2.13;;;1.27;;
1164;SDS011;571;50.930;6.926;2022-09-04T14:14:22;3.53;;;2.00;;
1164;SDS011;571;50.930;6.926;2022-09-04T14:17:03;3.03;;;1.23;;
1164;SDS011;571;50.930;6.926;2022-09-04T14:19:34;1.67;;;1.40;;
1164;SDS011;571;50.930;6.926;2022-09-04T14:22:11;1.83;;;1.63;;
1164;SDS011;571;50.930;6.926;2022-09-04T14:24:50;1.83;;;1.30;;
1164;SDS011;571;50.930;6.926;2022-09-04T14:27:26;2.40;;;1.53;;
1164;SDS011;571;50.930;6.926;2022-09-04T14:30:04;3.53;;;1.50;;
1164;SDS011;571;50.930;6.926;2022-09-04T14:32:36;1.83;;;1.50;;
1164;SDS011;571;50.930;6.926;2022-09-04T14:35:14;2.50;;;1.33;;
1164;SDS011;571;50.930;6.926;2022-09-04T14:37:51;2.13;;;1.70;;
1164;SDS011;571;50.930;6.926;2022-09-04T14:40:31;3.80;;;1.63;;
1164;SDS011;571;50.930;6.926;2022-09-04T14:43:01;1.43;;;1.33;;
1164;SDS011;571;50.930;6.926;2022-09-04T14:45:43;2.33;;;1.50;;
1164;SDS011;571;50.930;6.926;2022-09-04T14:48:17;1.97;;;1.77;;
1164;SDS011;571;50.930;6.926;2022-09-04T14:50:48;1.40;;;1.30;;
1164;SDS011;571;50.930;6.926;2022-09-04T14:53:18;2.27;;;1.60;;
1164;SDS011;571;50.930;6.926;2022-09-04T14:58:44;1.40;;;1.23;;
1164;SDS011;571;50.930;6.926;2022-09-04T15:01:16;1.13;;;1.03;;
1164;SDS011;571;50.930;6.926;2022-09-04T15:03:46;3.50;;;1.90;;
1164;SDS011;571;50.930;6.926;2022-09-04T15:06:16;2.43;;;1.60;;
1164;SDS011;571;50.930;6.926;2022-09-04T15:08:49;2.40;;;1.90;;
1164;SDS011;571;50.930;6.926;2022-09-04T15:11:25;1.93;;;1.53;;
1164;SDS011;571;50.930;6.926;2022-09-04T15:13:56;1.60;;;1.50;;
1164;SDS011;571;50.930;6.926;2022-09-04T15:16:33;3.10;;;1.70;;
1164;SDS011;571;50.930;6.926;2022-09-04T15:19:18;2.53;;;1.70;;
1164;SDS011;571;50.930;6.926;2022-09-04T15:21:54;2.13;;;1.43;;
1164;SDS011;571;50.930;6.926;2022-09-04T15:24:25;1.73;;;1.63;;
1164;SDS011;571;50.930;6.926;2022-09-04T15:26:57;1.83;;;1.60;;
1164;SDS011;571;50.930;6.926;2022-09-04T15:29:31;2.70;;;1.50;;
1164;SDS011;571;50.930;6.926;2022-09-04T15:32:04;2.80;;;1.83;;
1164;SDS011;571;50.930;6.926;2022-09-04T15:34:33;1.77;;;1.37;;
1164;SDS011;571;50.930;6.926;2022-09-04T15:37:07;1.53;;;1.40;;
1164;SDS011;571;50.930;6.926;2022-09-04T15:39:43;4.17;;;1.20;;
1164;SDS011;571;50.930;6.926;2022-09-04T15:42:30;1.83;;;1.43;;
1164;SDS011;571;50.930;6.926;2022-09-04T15:45:03;5.33;;;2.33;;
1164;SDS011;571;50.930;6.926;2022-09-04T15:47:52;2.97;;;2.20;;
1164;SDS011;571;50.930;6.926;2022-09-04T15:50:28;3.87;;;2.17;;
1164;SDS011;571;50.930;6.926;2022-09-04T15:52:59;2.10;;;1.60;;
1164;SDS011;571;50.930;6.926;2022-09-04T15:55:39;2.80;;;1.60;;
1164;SDS011;571;50.930;6.926;2022-09-04T15:58:10;3.83;;;2.13;;
1164;SDS011;571;50.930;6.926;2022-09-04T16:00:52;1.70;;;1.50;;
1164;SDS011;571;50.930;6.926;2022-09-04T16:03:34;2.87;;;1.93;;
1164;SDS011;571;50.930;6.926;2022-09-04T16:06:08;3.03;;;2.20;;
1164;SDS011;571;50.930;6.926;2022-09-04T16:08:43;2.37;;;1.93;;
1164;SDS011;571;50.930;6.926;2022-09-04T16:11:19;3.33;;;2.27;;
1164;SDS011;571;50.930;6.926;2022-09-04T16:13:55;2.50;;;2.30;;
1164;SDS011;571;50.930;6.926;2022-09-04T16:16:25;2.10;;;1.93;;
1164;SDS011;571;50.930;6.926;2022-09-04T16:19:03;4.67;;;1.63;;
1164;SDS011;571;50.930;6.926;2022-09-04T16:21:40;1.50;;;1.40;;
1164;SDS011;571;50.930;6.926;2022-09-04T16:24:14;3.43;;;2.30;;
1164;SDS011;571;50.930;6.926;2022-09-04T16:26:45;4.13;;;2.83;;
1164;SDS011;571;50.930;6.926;2022-09-04T16:29:19;2.43;;;1.97;;
1164;SDS011;571;50.930;6.926;2022-09-04T16:31:53;5.17;;;3.40;;
1164;SDS011;571;50.930;6.926;2022-09-04T16:34:23;6.27;;;3.47;;
1164;SDS011;571;50.930;6.926;2022-09-04T16:36:53;21.27;;;7.77;;
1164;SDS011;571;50.930;6.926;2022-09-04T16:39:27;22.03;;;11.20;;
1164;SDS011;571;50.930;6.926;2022-09-04T16:42:06;4.77;;;2.43;;
1164;SDS011;571;50.930;6.926;2022-09-04T16:44:42;2.70;;;2.33;;
1164;SDS011;571;50.930;6.926;2022-09-04T16:47:13;2.47;;;1.80;;
1164;SDS011;571;50.930;6.926;2022-09-04T16:49:47;3.43;;;2.37;;
1164;SDS011;571;50.930;6.926;2022-09-04T16:52:26;5.23;;;3.27;;
1164;SDS011;571;50.930;6.926;2022-09-04T16:55:08;3.47;;;2.87;;
1164;SDS011;571;50.930;6.926;2022-09-04T16:57:40;2.50;;;1.70;;
1164;SDS011;571;50.930;6.926;2022-09-04T17:00:16;2.70;;;2.50;;
1164;SDS011;571;50.930;6.926;2022-09-04T17:02:48;2.50;;;2.30;;
1164;SDS011;571;50.930;6.926;2022-09-04T17:05:22;3.37;;;2.10;;
1164;SDS011;571;50.930;6.926;2022-09-04T17:08:00;4.20;;;2.30;;
1164;SDS011;571;50.930;6.926;2022-09-04T17:10:35;2.30;;;2.10;;
1164;SDS011;571;50.930;6.926;2022-09-04T17:13:09;2.03;;;1.93;;
1164;SDS011;571;50.930;6.926;2022-09-04T17:15:45;2.57;;;2.37;;
1164;SDS011;571;50.930;6.926;2022-09-04T17:18:19;3.10;;;2.00;;
1164;SDS011;571;50.930;6.926;2022-09-04T17:20:50;6.30;;;2.40;;
1164;SDS011;571;50.930;6.926;2022-09-04T17:23:23;7.23;;;1.97;;
1164;SDS011;571;50.930;6.926;2022-09-04T17:25:53;23.93;;;3.63;;
1164;SDS011;571;50.930;6.926;2022-09-04T17:31:12;12.90;;;3.27;;
1164;SDS011;571;50.930;6.926;2022-09-04T17:33:44;4.83;;;2.77;;
1164;SDS011;571;50.930;6.926;2022-09-04T17:36:19;6.23;;;2.63;;
1164;SDS011;571;50.930;6.926;2022-09-04T17:38:53;7.23;;;2.60;;
1164;SDS011;571;50.930;6.926;2022-09-04T17:41:26;5.57;;;2.03;;
1164;SDS011;571;50.930;6.926;2022-09-04T17:44:03;10.17;;;2.73;;
1164;SDS011;571;50.930;6.926;2022-09-04T17:46:46;5.03;;;2.37;;
1164;SDS011;571;50.930;6.926;2022-09-04T17:49:21;3.03;;;2.73;;
1164;SDS011;571;50.930;6.926;2022-09-04T17:51:52;6.30;;;2.27;;
1164;SDS011;571;50.930;6.926;2022-09-04T17:54:20;3.50;;;2.50;;
1164;SDS011;571;50.930;6.926;2022-09-04T17:56:50;4.60;;;2.93;;
1164;SDS011;571;50.930;6.926;2022-09-04T17:59:21;6.47;;;2.87;;
1164;SDS011;571;50.930;6.926;2022-09-04T18:01:56;7.33;;;2.67;;
1164;SDS011;571;50.930;6.926;2022-09-04T18:04:31;5.60;;;2.60;;
1164;SDS011;571;50.930;6.926;2022-09-04T18:07:04;2.87;;;2.17;;
1164;SDS011;571;50.930;6.926;2022-09-04T18:09:40;19.30;;;3.47;;
1164;SDS011;571;50.930;6.926;2022-09-04T18:12:14;7.13;;;3.70;;
1164;SDS011;571;50.930;6.926;2022-09-04T18:14:51;8.17;;;2.83;;
1164;SDS011;571;50.930;6.926;2022-09-04T18:17:29;12.30;;;3.63;;
1164;SDS011;571;50.930;6.926;2022-09-04T18:20:08;9.73;;;3.57;;
1164;SDS011;571;50.930;6.926;2022-09-04T18:25:53;10.93;;;4.47;;
1164;SDS011;571;50.930;6.926;2022-09-04T18:28:25;7.73;;;3.47;;
1164;SDS011;571;50.930;6.926;2022-09-04T18:31:00;17.07;;;3.73;;
1164;SDS011;571;50.930;6.926;2022-09-04T18:33:34;6.20;;;3.77;;
1164;SDS011;571;50.930;6.926;2022-09-04T18:36:08;9.10;;;3.90;;
1164;SDS011;571;50.930;6.926;2022-09-04T18:38:40;4.00;;;3.20;;
1164;SDS011;571;50.930;6.926;2022-09-04T18:41:11;7.43;;;4.20;;
1164;SDS011;571;50.930;6.926;2022-09-04T18:43:45;7.53;;;4.20;;
1164;SDS011;571;50.930;6.926;2022-09-04T18:46:18;4.97;;;3.70;;
1164;SDS011;571;50.930;6.926;2022-09-04T18:48:49;8.43;;;4.00;;
1164;SDS011;571;50.930;6.926;2022-09-04T18:51:25;7.77;;;4.17;;
1164;SDS011;571;50.930;6.926;2022-09-04T18:53:55;5.13;;;3.60;;
1164;SDS011;571;50.930;6.926;2022-09-04T18:56:27;5.37;;;3.97;;
1164;SDS011;571;50.930;6.926;2022-09-04T18:58:56;7.63;;;3.97;;
1164;SDS011;571;50.930;6.926;2022-09-04T19:01:30;9.80;;;3.90;;
1164;SDS011;571;50.930;6.926;2022-09-04T19:04:23;4.50;;;3.97;;
1164;SDS011;571;50.930;6.926;2022-09-04T19:07:10;6.03;;;3.33;;
1164;SDS011;571;50.930;6.926;2022-09-04T19:09:53;4.77;;;4.17;;
1164;SDS011;571;50.930;6.926;2022-09-04T19:12:33;4.67;;;3.90;;
1164;SDS011;571;50.930;6.926;2022-09-04T19:15:19;5.30;;;3.80;;
1164;SDS011;571;50.930;6.926;2022-09-04T19:18:06;6.30;;;4.87;;
1164;SDS011;571;50.930;6.926;2022-09-04T19:20:45;4.93;;;4.20;;
1164;SDS011;571;50.930;6.926;2022-09-04T19:23:17;5.80;;;4.63;;
1164;SDS011;571;50.930;6.926;2022-09-04T19:25:50;7.83;;;4.00;;
1164;SDS011;571;50.930;6.926;2022-09-04T19:28:25;5.40;;;3.77;;
1164;SDS011;571;50.930;6.926;2022-09-04T19:31:06;7.03;;;3.60;;
1164;SDS011;571;50.930;6.926;2022-09-04T19:33:36;5.77;;;5.13;;
1164;SDS011;571;50.930;6.926;2022-09-04T19:36:17;5.13;;;4.53;;
1164;SDS011;571;50.930;6.926;2022-09-04T19:38:47;6.10;;;4.33;;
1164;SDS011;571;50.930;6.926;2022-09-04T19:41:16;5.40;;;4.23;;
1164;SDS011;571;50.930;6.926;2022-09-04T19:43:47;4.67;;;4.27;;
1164;SDS011;571;50.930;6.926;2022-09-04T19:46:25;4.67;;;4.20;;
1164;SDS011;571;50.930;6.926;2022-09-04T19:49:12;11.07;;;5.33;;
1164;SDS011;571;50.930;6.926;2022-09-04T19:51:51;5.50;;;4.60;;
1164;SDS011;571;50.930;6.926;2022-09-04T19:54:29;5.73;;;4.77;;
1164;SDS011;571;50.930;6.926;2022-09-04T19:57:04;8.20;;;4.33;;
1164;SDS011;571;50.930;6.926;2022-09-04T19:59:40;8.10;;;5.43;;
1164;SDS011;571;50.930;6.926;2022-09-04T20:02:15;6.83;;;4.77;;
1164;SDS011;571;50.930;6.926;2022-09-04T20:04:47;7.60;;;4.10;;
1164;SDS011;571;50.930;6.926;2022-09-04T20:07:19;5.50;;;4.73;;
1164;SDS011;571;50.930;6.926;2022-09-04T20:09:54;4.90;;;4.50;;
1164;SDS011;571;50.930;6.926;2022-09-04T20:12:24;7.10;;;4.70;;
1164;SDS011;571;50.930;6.926;2022-09-04T20:14:54;6.83;;;5.27;;
1164;SDS011;571;50.930;6.926;2022-09-04T20:17:41;5.47;;;5.00;;
1164;SDS011;571;50.930;6.926;2022-09-04T20:20:20;12.07;;;4.70;;
1164;SDS011;571;50.930;6.926;2022-09-04T20:22:51;7.80;;;5.60;;
1164;SDS011;571;50.930;6.926;2022-09-04T20:25:29;9.93;;;5.13;;
1164;SDS011;571;50.930;6.926;2022-09-04T20:28:09;4.90;;;4.43;;
1164;SDS011;571;50.930;6.926;2022-09-04T20:30:44;6.20;;;4.80;;
1164;SDS011;571;50.930;6.926;2022-09-04T20:33:24;8.60;;;5.50;;
1164;SDS011;571;50.930;6.926;2022-09-04T20:35:56;5.40;;;4.07;;
1164;SDS011;571;50.930;6.926;2022-09-04T20:38:32;7.40;;;4.90;;
1164;SDS011;571;50.930;6.926;2022-09-04T20:41:14;8.70;;;5.47;;
1164;SDS011;571;50.930;6.926;2022-09-04T20:43:47;7.73;;;4.70;;
1164;SDS011;571;50.930;6.926;2022-09-04T20:46:24;9.60;;;5.77;;
1164;SDS011;571;50.930;6.926;2022-09-04T20:48:57;5.97;;;5.37;;
1164;SDS011;571;50.930;6.926;2022-09-04T20:51:26;10.00;;;4.90;;
1164;SDS011;571;50.930;6.926;2022-09-04T20:54:12;7.00;;;5.60;;
1164;SDS011;571;50.930;6.926;2022-09-04T20:56:50;11.03;;;5.53;;
1164;SDS011;571;50.930;6.926;2022-09-04T20:59:25;6.13;;;5.40;;
1164;SDS011;571;50.930;6.926;2022-09-04T21:02:00;7.83;;;4.37;;
1164;SDS011;571;50.930;6.926;2022-09-04T21:04:36;6.50;;;4.37;;
1164;SDS011;571;50.930;6.926;2022-09-04T21:07:14;5.77;;;4.20;;
1164;SDS011;571;50.930;6.926;2022-09-04T21:09:49;8.53;;;4.17;;
1164;SDS011;571;50.930;6.926;2022-09-04T21:12:24;4.40;;;3.93;;
1164;SDS011;571;50.930;6.926;2022-09-04T21:14:59;5.83;;;3.90;;
1164;SDS011;571;50.930;6.926;2022-09-04T21:17:39;7.30;;;4.20;;
1164;SDS011;571;50.930;6.926;2022-09-04T21:20:38;8.13;;;4.40;;
1164;SDS011;571;50.930;6.926;2022-09-04T21:23:35;4.20;;;3.80;;
1164;SDS011;571;50.930;6.926;2022-09-04T21:26:18;6.30;;;5.47;;
1164;SDS011;571;50.930;6.926;2022-09-04T21:28:59;4.97;;;3.90;;
1164;SDS011;571;50.930;6.926;2022-09-04T21:31:48;4.80;;;4.30;;
1164;SDS011;571;50.930;6.926;2022-09-04T21:34:38;8.33;;;3.43;;
1164;SDS011;571;50.930;6.926;2022-09-04T21:37:20;4.33;;;3.93;;
1164;SDS011;571;50.930;6.926;2022-09-04T21:40:00;5.93;;;3.73;;
1164;SDS011;571;50.930;6.926;2022-09-04T21:42:49;7.40;;;4.17;;
1164;SDS011;571;50.930;6.926;2022-09-04T21:45:37;5.60;;;4.20;;
1164;SDS011;571;50.930;6.926;2022-09-04T21:51:22;5.80;;;4.63;;
